createdAt,value
2023-11-08T00:00:16.089Z,100.00
2023-11-08T00:02:43.348Z,100.00
2023-11-08T00:05:10.540Z,100.00
2023-11-08T00:07:37.853Z,100.00
2023-11-08T00:10:05.401Z,100.00
2023-11-08T00:12:34.115Z,100.00
2023-11-08T00:15:01.791Z,100.00
2023-11-08T00:17:29.215Z,100.00
2023-11-08T00:19:57.228Z,100.00
2023-11-08T00:22:25.156Z,100.00
2023-11-08T00:24:52.303Z,100.00
2023-11-08T00:27:19.543Z,100.00
2023-11-08T00:29:47.948Z,100.00
2023-11-08T00:32:17.450Z,100.00
2023-11-08T00:34:44.772Z,100.00
2023-11-08T00:37:12.365Z,100.00
2023-11-08T00:39:39.663Z,100.00
2023-11-08T00:42:07.053Z,100.00
2023-11-08T00:44:34.349Z,100.00
2023-11-08T00:47:01.777Z,100.00
2023-11-08T00:49:29.723Z,100.00
2023-11-08T00:52:00.872Z,100.00
2023-11-08T00:54:28.674Z,100.00
2023-11-08T00:56:56.302Z,100.00
2023-11-08T00:59:24.241Z,100.00
2023-11-08T01:01:51.416Z,100.00
2023-11-08T01:04:18.804Z,100.00
2023-11-08T01:06:46.087Z,100.00
2023-11-08T01:09:13.448Z,100.00
2023-11-08T01:11:42.833Z,100.00
2023-11-08T01:14:10.040Z,100.00
2023-11-08T01:16:37.400Z,100.00
2023-11-08T01:19:05.362Z,100.00
2023-11-08T01:21:32.993Z,100.00
2023-11-08T01:24:01.468Z,100.00
2023-11-08T01:26:28.670Z,100.00
2023-11-08T01:28:56.080Z,100.00
2023-11-08T01:31:23.232Z,100.00
2023-11-08T01:33:50.447Z,100.00
2023-11-08T01:36:17.812Z,100.00
2023-11-08T01:38:47.172Z,100.00
2023-11-08T01:41:14.399Z,100.00
2023-11-08T01:43:41.551Z,100.00
2023-11-08T01:46:13.205Z,100.00
2023-11-08T01:48:41.752Z,100.00
2023-11-08T01:51:10.324Z,100.00
2023-11-08T01:53:42.145Z,100.00
2023-11-08T01:56:10.665Z,100.00
2023-11-08T01:58:39.929Z,100.00
2023-11-08T02:01:14.126Z,100.00
2023-11-08T02:03:42.754Z,100.00
2023-11-08T02:06:12.766Z,100.00
2023-11-08T02:08:41.386Z,100.00
2023-11-08T02:11:09.783Z,100.00
2023-11-08T02:13:37.163Z,100.00
2023-11-08T02:16:05.097Z,100.00
2023-11-08T02:18:33.124Z,100.00
2023-11-08T02:21:01.575Z,100.00
2023-11-08T02:23:30.197Z,100.00
2023-11-08T02:25:57.403Z,100.00
2023-11-08T02:28:24.788Z,100.00
2023-11-08T02:30:56.117Z,100.00
2023-11-08T02:33:28.547Z,100.00
2023-11-08T02:35:56.169Z,100.00
2023-11-08T02:38:23.415Z,100.00
2023-11-08T02:40:50.579Z,100.00
2023-11-08T02:43:17.955Z,100.00
2023-11-08T02:45:45.760Z,100.00
2023-11-08T02:48:13.205Z,100.00
2023-11-08T02:50:41.144Z,100.00
2023-11-08T02:53:09.497Z,100.00
2023-11-08T02:55:38.425Z,100.00
2023-11-08T02:58:05.914Z,100.00
2023-11-08T03:00:33.533Z,100.00
2023-11-08T03:03:02.066Z,100.00
2023-11-08T03:05:29.560Z,100.00
2023-11-08T03:07:56.844Z,100.00
2023-11-08T03:10:24.154Z,100.00
2023-11-08T03:12:52.810Z,100.00
2023-11-08T03:15:22.803Z,100.00
2023-11-08T03:17:53.002Z,100.00
2023-11-08T03:20:21.006Z,100.00
2023-11-08T03:22:49.297Z,100.00
2023-11-08T03:25:18.984Z,100.00
2023-11-08T03:27:48.272Z,100.00
2023-11-08T03:30:18.245Z,100.00
2023-11-08T03:32:45.622Z,100.00
2023-11-08T03:35:14.691Z,100.00
2023-11-08T03:37:44.765Z,100.00
2023-11-08T03:40:13.721Z,100.00
2023-11-08T03:42:45.712Z,100.00
2023-11-08T03:45:14.114Z,100.00
2023-11-08T03:47:42.640Z,100.00
2023-11-08T03:50:10.764Z,100.00
2023-11-08T03:52:38.217Z,100.00
2023-11-08T03:55:06.637Z,100.00
2023-11-08T03:57:33.923Z,100.00
2023-11-08T04:00:01.433Z,100.00
2023-11-08T04:02:29.474Z,100.00
2023-11-08T04:04:58.321Z,100.00
2023-11-08T04:07:25.653Z,100.00
2023-11-08T04:09:52.978Z,100.00
2023-11-08T04:12:20.229Z,100.00
2023-11-08T04:14:47.607Z,100.00
2023-11-08T04:17:16.677Z,100.00
2023-11-08T04:19:46.745Z,100.00
2023-11-08T04:22:15.431Z,100.00
2023-11-08T04:24:43.814Z,100.00
2023-11-08T04:27:12.044Z,100.00
2023-11-08T04:29:39.625Z,100.00
2023-11-08T04:32:07.503Z,100.00
2023-11-08T04:34:35.415Z,100.00
2023-11-08T04:37:06.500Z,100.00
2023-11-08T04:39:33.774Z,100.00
2023-11-08T04:42:01.506Z,100.00
2023-11-08T04:44:29.470Z,100.00
2023-11-08T04:46:56.594Z,100.00
2023-11-08T04:49:23.848Z,100.00
2023-11-08T04:51:51.150Z,100.00
2023-11-08T04:54:18.361Z,100.00
2023-11-08T04:56:45.731Z,100.00
2023-11-08T04:59:13.882Z,100.00
2023-11-08T05:01:43.772Z,100.00
2023-11-08T05:04:11.781Z,100.00
2023-11-08T05:06:39.338Z,100.00
2023-11-08T05:09:07.350Z,100.00
2023-11-08T05:11:34.870Z,100.00
2023-11-08T05:14:04.567Z,100.00
2023-11-08T05:16:35.186Z,100.00
2023-11-08T05:19:06.990Z,100.00
2023-11-08T05:21:34.350Z,100.00
2023-11-08T05:24:01.750Z,100.00
2023-11-08T05:26:29.325Z,100.00
2023-11-08T05:28:56.594Z,100.00
2023-11-08T05:31:24.748Z,100.00
2023-11-08T05:33:52.167Z,100.00
2023-11-08T05:36:19.483Z,100.00
2023-11-08T05:38:46.697Z,100.00
2023-11-08T05:41:19.500Z,100.00
2023-11-08T05:43:46.972Z,100.00
2023-11-08T05:46:14.507Z,100.00
2023-11-08T05:48:41.779Z,100.00
2023-11-08T05:51:09.229Z,100.00
2023-11-08T05:53:38.536Z,100.00
2023-11-08T05:56:07.692Z,100.00
2023-11-08T05:58:37.899Z,100.00
2023-11-08T06:01:06.778Z,100.00
2023-11-08T06:03:34.056Z,100.00
2023-11-08T06:06:01.359Z,100.00
2023-11-08T06:08:28.733Z,100.00
2023-11-08T06:10:56.022Z,100.00
2023-11-08T06:13:23.372Z,100.00
2023-11-08T06:15:51.154Z,100.00
2023-11-08T06:18:21.814Z,100.00
2023-11-08T06:20:49.254Z,100.00
2023-11-08T06:23:16.509Z,100.00
2023-11-08T06:25:44.990Z,100.00
2023-11-08T06:28:12.921Z,100.00
2023-11-08T06:30:40.589Z,100.00
2023-11-08T06:33:09.046Z,100.00
2023-11-08T06:35:36.948Z,100.00
2023-11-08T06:38:04.235Z,100.00
2023-11-08T06:40:31.408Z,100.00
2023-11-08T06:42:58.724Z,100.00
2023-11-08T06:45:25.937Z,100.00
2023-11-08T06:47:53.282Z,100.00
2023-11-08T06:50:20.585Z,100.00
2023-11-08T06:52:48.251Z,100.00
2023-11-08T06:55:23.097Z,100.00
2023-11-08T06:57:59.473Z,100.00
2023-11-08T07:00:27.034Z,100.00
2023-11-08T07:02:54.706Z,100.00
2023-11-08T07:05:27.742Z,100.00
2023-11-08T07:08:00.469Z,100.00
2023-11-08T07:10:28.242Z,100.00
2023-11-08T07:12:56.713Z,100.00
2023-11-08T07:15:24.305Z,100.00
2023-11-08T07:17:51.657Z,100.00
2023-11-08T07:20:18.942Z,100.00
2023-11-08T07:22:46.234Z,100.00
2023-11-08T07:25:15.939Z,100.00
2023-11-08T07:27:43.461Z,100.00
2023-11-08T07:30:12.562Z,100.00
2023-11-08T07:32:40.141Z,100.00
2023-11-08T07:35:08.441Z,100.00
2023-11-08T07:37:41.075Z,100.00
2023-11-08T07:40:13.683Z,100.00
2023-11-08T07:42:42.269Z,100.00
2023-11-08T07:45:10.963Z,100.00
2023-11-08T07:47:38.444Z,100.00
2023-11-08T07:50:07.657Z,100.00
2023-11-08T07:52:35.370Z,100.00
2023-11-08T07:55:03.103Z,100.00
2023-11-08T07:57:30.795Z,100.00
2023-11-08T07:59:58.041Z,100.00
2023-11-08T08:02:25.328Z,100.00
2023-11-08T08:04:53.177Z,100.00
2023-11-08T08:07:20.397Z,100.00
2023-11-08T08:09:47.646Z,100.00
2023-11-08T08:12:14.794Z,100.00
2023-11-08T08:14:41.998Z,100.00
2023-11-08T08:17:09.731Z,100.00
2023-11-08T08:19:37.341Z,100.00
2023-11-08T08:22:05.771Z,100.00
2023-11-08T08:24:33.320Z,100.00
2023-11-08T08:27:00.765Z,100.00
2023-11-08T08:29:28.626Z,100.00
2023-11-08T08:31:55.911Z,100.00
2023-11-08T08:34:31.037Z,100.00
2023-11-08T08:37:00.008Z,100.00
2023-11-08T08:39:30.235Z,100.00
2023-11-08T08:41:58.467Z,100.00
2023-11-08T08:44:26.230Z,100.00
2023-11-08T08:46:53.948Z,100.00
2023-11-08T08:49:23.068Z,100.00
2023-11-08T08:51:51.596Z,100.00
2023-11-08T08:54:22.828Z,100.00
2023-11-08T08:56:50.450Z,100.00
2023-11-08T08:59:17.726Z,100.00
2023-11-08T09:01:45.236Z,100.00
2023-11-08T09:04:13.179Z,100.00
2023-11-08T09:06:40.705Z,100.00
2023-11-08T09:09:13.600Z,100.00
2023-11-08T09:11:44.223Z,100.00
2023-11-08T09:14:11.693Z,100.00
2023-11-08T09:16:39.908Z,100.00
2023-11-08T09:19:09.898Z,100.00
2023-11-08T09:21:37.911Z,100.00
2023-11-08T09:24:08.037Z,100.00
2023-11-08T09:26:36.506Z,100.00
2023-11-08T09:29:04.332Z,100.00
2023-11-08T09:31:50.451Z,100.00
2023-11-08T09:34:18.961Z,100.00
2023-11-08T09:36:48.299Z,100.00
2023-11-08T09:39:17.365Z,99.99
2023-11-08T09:41:44.776Z,95.96
2023-11-08T09:44:16.851Z,92.07
2023-11-08T09:46:44.427Z,90.53
2023-11-08T09:49:13.269Z,89.88
2023-11-08T09:51:40.759Z,90.33
2023-11-08T09:54:08.306Z,89.78
2023-11-08T09:56:35.860Z,89.91
2023-11-08T09:59:04.487Z,89.95
2023-11-08T10:01:35.768Z,90.57
2023-11-08T10:04:03.298Z,91.22
2023-11-08T10:06:35.662Z,92.23
2023-11-08T10:09:07.245Z,92.67
2023-11-08T10:11:37.018Z,93.72
2023-11-08T10:14:04.493Z,93.86
2023-11-08T10:16:55.058Z,94.21
2023-11-08T10:19:44.393Z,94.93
2023-11-08T10:22:21.979Z,95.25
2023-11-08T10:24:55.134Z,95.00
2023-11-08T10:27:23.716Z,95.38
2023-11-08T10:29:51.921Z,95.97
2023-11-08T10:32:21.391Z,96.19
2023-11-08T10:34:49.004Z,97.23
2023-11-08T10:37:29.329Z,97.36
2023-11-08T10:40:00.544Z,98.23
2023-11-08T10:42:28.154Z,98.76
2023-11-08T10:45:10.095Z,98.47
2023-11-08T10:47:38.888Z,98.96
2023-11-08T10:50:07.390Z,99.33
2023-11-08T10:52:35.070Z,99.52
2023-11-08T10:55:05.920Z,100.00
2023-11-08T10:57:36.984Z,100.00
2023-11-08T11:00:10.920Z,100.00
2023-11-08T11:02:46.701Z,100.00
2023-11-08T11:05:18.278Z,100.00
2023-11-08T11:07:46.146Z,100.00
2023-11-08T11:10:14.467Z,100.00
2023-11-08T11:12:57.787Z,100.00
2023-11-08T11:15:38.243Z,100.00
2023-11-08T11:18:12.092Z,100.00
2023-11-08T11:20:45.672Z,100.00
2023-11-08T11:23:32.856Z,100.00
2023-11-08T11:26:00.930Z,100.00
2023-11-08T11:28:53.795Z,100.00
2023-11-08T11:31:34.615Z,100.00
2023-11-08T11:34:26.432Z,100.00
2023-11-08T11:37:12.807Z,100.00
2023-11-08T11:39:43.473Z,100.00
2023-11-08T11:42:15.730Z,100.00
2023-11-08T11:44:52.913Z,100.00
2023-11-08T11:47:23.660Z,100.00
2023-11-08T11:49:53.126Z,100.00
2023-11-08T11:52:22.495Z,100.00
2023-11-08T11:54:51.928Z,100.00
2023-11-08T11:57:26.068Z,100.00
2023-11-08T11:59:55.433Z,100.00
2023-11-08T12:02:25.974Z,100.00
2023-11-08T12:04:53.818Z,100.00
2023-11-08T12:07:21.483Z,100.00
2023-11-08T12:09:50.524Z,100.00
2023-11-08T12:12:28.688Z,100.00
2023-11-08T12:14:56.932Z,100.00
2023-11-08T12:17:27.611Z,100.00
2023-11-08T12:19:55.811Z,100.00
2023-11-08T12:22:23.141Z,100.00
2023-11-08T12:24:50.805Z,100.00
2023-11-08T12:27:18.468Z,100.00
2023-11-08T12:29:46.356Z,100.00
2023-11-08T12:32:13.707Z,100.00
2023-11-08T12:34:42.431Z,100.00
2023-11-08T12:37:11.880Z,100.00
2023-11-08T12:39:39.830Z,100.00
2023-11-08T12:42:15.955Z,100.00
2023-11-08T12:44:47.987Z,100.00
2023-11-08T12:47:16.388Z,100.00
2023-11-08T12:49:45.178Z,100.00
2023-11-08T12:52:13.736Z,100.00
2023-11-08T12:54:41.356Z,100.00
2023-11-08T12:57:08.720Z,100.00
2023-11-08T12:59:43.717Z,100.00
2023-11-08T13:02:13.085Z,100.00
2023-11-08T13:04:43.564Z,100.00
2023-11-08T13:07:11.089Z,100.00
2023-11-08T13:09:41.771Z,100.00
2023-11-08T13:12:12.333Z,100.00
2023-11-08T13:14:42.106Z,100.00
2023-11-08T13:17:12.610Z,100.00
2023-11-08T13:19:40.514Z,100.00
2023-11-08T13:22:07.820Z,100.00
2023-11-08T13:24:35.677Z,100.00
2023-11-08T13:27:06.505Z,100.00
2023-11-08T13:29:35.300Z,100.00
2023-11-08T13:32:04.758Z,100.00
2023-11-08T13:34:32.924Z,100.00
2023-11-08T13:37:02.385Z,100.00
2023-11-08T13:39:29.844Z,100.00
2023-11-08T13:41:58.698Z,100.00
2023-11-08T13:44:25.992Z,100.00
2023-11-08T13:46:53.230Z,100.00
2023-11-08T13:49:20.563Z,100.00
2023-11-08T13:51:47.937Z,100.00
2023-11-08T13:54:15.172Z,100.00
2023-11-08T13:56:44.719Z,100.00
2023-11-08T13:59:12.035Z,100.00
2023-11-08T14:01:39.185Z,100.00
2023-11-08T14:04:06.845Z,100.00
2023-11-08T14:06:34.121Z,100.00
2023-11-08T14:09:01.410Z,100.00
2023-11-08T14:11:28.825Z,100.00
2023-11-08T14:13:56.121Z,100.00
2023-11-08T14:16:23.658Z,100.00
2023-11-08T14:18:50.955Z,100.00
2023-11-08T14:21:18.241Z,100.00
2023-11-08T14:23:45.480Z,100.00
2023-11-08T14:26:12.673Z,100.00
2023-11-08T14:28:40.030Z,100.00
2023-11-08T14:31:07.375Z,100.00
2023-11-08T14:33:34.848Z,100.00
2023-11-08T14:36:03.767Z,100.00
2023-11-08T14:38:32.522Z,100.00
2023-11-08T14:40:59.690Z,100.00
2023-11-08T14:43:27.982Z,100.00
2023-11-08T14:45:55.647Z,100.00
2023-11-08T14:48:24.513Z,100.00
2023-11-08T14:50:51.971Z,100.00
2023-11-08T14:53:19.364Z,100.00
2023-11-08T14:55:47.417Z,100.00
2023-11-08T14:58:14.599Z,100.00
2023-11-08T15:00:43.777Z,100.00
2023-11-08T15:03:11.069Z,100.00
2023-11-08T15:05:38.810Z,100.00
2023-11-08T15:09:48.447Z,100.00
2023-11-08T15:10:54.321Z,100.00
2023-11-08T15:13:21.824Z,100.00
2023-11-08T15:15:49.103Z,100.00
2023-11-08T15:18:17.558Z,100.00
2023-11-08T15:20:44.799Z,100.00
2023-11-08T15:23:12.040Z,100.00
2023-11-08T15:25:40.861Z,100.00
2023-11-08T15:28:10.470Z,100.00
2023-11-08T15:30:38.169Z,100.00
2023-11-08T15:33:06.102Z,100.00
2023-11-08T15:35:33.410Z,100.00
2023-11-08T15:38:00.636Z,100.00
2023-11-08T15:40:27.902Z,100.00
2023-11-08T15:42:55.340Z,100.00
2023-11-08T15:45:25.741Z,100.00
2023-11-08T15:47:54.668Z,100.00
2023-11-08T15:50:21.891Z,100.00
2023-11-08T15:52:49.067Z,100.00
2023-11-08T15:55:17.980Z,100.00
2023-11-08T15:57:45.305Z,100.00
2023-11-08T16:00:13.139Z,100.00
2023-11-08T16:02:41.362Z,100.00
2023-11-08T16:05:12.166Z,100.00
2023-11-08T16:07:40.256Z,100.00
2023-11-08T16:10:09.111Z,100.00
2023-11-08T16:12:36.475Z,100.00
2023-11-08T16:15:05.547Z,100.00
2023-11-08T16:17:33.515Z,100.00
2023-11-08T16:20:01.541Z,100.00
2023-11-08T16:22:28.971Z,100.00
2023-11-08T16:24:58.008Z,100.00
2023-11-08T16:27:25.240Z,100.00
2023-11-08T16:29:54.701Z,100.00
2023-11-08T16:32:35.828Z,100.00
2023-11-08T16:35:11.436Z,100.00
2023-11-08T16:37:41.952Z,100.00
2023-11-08T16:40:11.186Z,100.00
2023-11-08T16:42:39.012Z,100.00
2023-11-08T16:45:08.319Z,100.00
2023-11-08T16:47:35.817Z,100.00
2023-11-08T16:50:03.172Z,100.00
2023-11-08T16:52:30.513Z,100.00
2023-11-08T16:54:57.902Z,100.00
2023-11-08T16:57:25.085Z,100.00
2023-11-08T16:59:52.233Z,100.00
2023-11-08T17:02:19.545Z,100.00
2023-11-08T17:04:47.709Z,100.00
2023-11-08T17:07:14.947Z,100.00
2023-11-08T17:09:42.253Z,100.00
2023-11-08T17:12:09.663Z,100.00
2023-11-08T17:14:37.045Z,100.00
2023-11-08T17:17:04.716Z,100.00
2023-11-08T17:19:32.227Z,100.00
2023-11-08T17:21:59.613Z,100.00
2023-11-08T17:24:27.017Z,100.00
2023-11-08T17:26:54.411Z,100.00
2023-11-08T17:29:21.700Z,100.00
2023-11-08T17:31:51.894Z,100.00
2023-11-08T17:34:19.273Z,100.00
2023-11-08T17:36:47.120Z,100.00
2023-11-08T17:39:14.470Z,100.00
2023-11-08T17:41:42.051Z,100.00
2023-11-08T17:44:09.302Z,100.00
2023-11-08T17:46:36.583Z,100.00
2023-11-08T17:49:05.158Z,100.00
2023-11-08T17:51:32.531Z,100.00
2023-11-08T17:54:01.007Z,100.00
2023-11-08T17:56:28.189Z,100.00
2023-11-08T17:58:55.428Z,100.00
2023-11-08T18:01:23.479Z,100.00
2023-11-08T18:03:50.942Z,100.00
2023-11-08T18:06:18.627Z,100.00
2023-11-08T18:08:46.742Z,100.00
2023-11-08T18:11:15.387Z,100.00
2023-11-08T18:13:48.074Z,100.00
2023-11-08T18:16:15.778Z,100.00
2023-11-08T18:18:45.468Z,100.00
2023-11-08T18:21:13.763Z,100.00
2023-11-08T18:23:41.183Z,100.00
2023-11-08T18:26:08.446Z,100.00
2023-11-08T18:28:35.611Z,100.00
2023-11-08T18:31:03.028Z,100.00
2023-11-08T18:33:30.882Z,100.00
2023-11-08T18:35:58.163Z,100.00
2023-11-08T18:38:25.793Z,100.00
2023-11-08T18:40:55.489Z,100.00
2023-11-08T18:43:26.151Z,100.00
2023-11-08T18:45:54.477Z,100.00
2023-11-08T18:48:22.054Z,100.00
2023-11-08T18:50:49.688Z,100.00
2023-11-08T18:53:19.366Z,100.00
2023-11-08T18:55:46.748Z,100.00
2023-11-08T18:58:14.710Z,100.00
2023-11-08T19:00:42.388Z,100.00
2023-11-08T19:03:09.735Z,100.00
2023-11-08T19:05:37.860Z,100.00
2023-11-08T19:08:05.273Z,100.00
2023-11-08T19:10:33.122Z,100.00
2023-11-08T19:13:00.693Z,100.00
2023-11-08T19:15:28.742Z,100.00
2023-11-08T19:17:56.198Z,100.00
2023-11-08T19:20:23.841Z,100.00
2023-11-08T19:22:53.273Z,100.00
2023-11-08T19:25:22.445Z,100.00
2023-11-08T19:27:50.834Z,100.00
2023-11-08T19:30:18.797Z,100.00
2023-11-08T19:38:18.172Z,100.00
2023-11-08T19:40:45.525Z,100.00
2023-11-08T19:43:13.293Z,100.00
2023-11-08T19:45:40.549Z,100.00
2023-11-08T19:48:07.872Z,100.00
2023-11-08T19:50:35.202Z,100.00
2023-11-08T19:53:04.346Z,100.00
2023-11-08T19:55:31.998Z,100.00
2023-11-08T19:57:59.328Z,100.00
2023-11-08T20:00:26.550Z,100.00
2023-11-08T20:02:54.290Z,100.00
2023-11-08T20:05:21.984Z,100.00
2023-11-08T20:07:50.353Z,100.00
2023-11-08T20:10:19.012Z,100.00
2023-11-08T20:12:49.064Z,100.00
2023-11-08T20:15:16.732Z,100.00
2023-11-08T20:17:44.330Z,100.00
2023-11-08T20:20:12.668Z,100.00
2023-11-08T20:22:40.640Z,100.00
2023-11-08T20:25:08.697Z,100.00
2023-11-08T20:27:37.426Z,100.00
2023-11-08T20:30:08.478Z,100.00
2023-11-08T20:32:40.505Z,100.00
2023-11-08T20:35:08.630Z,100.00
2023-11-08T20:37:36.879Z,100.00
2023-11-08T20:40:10.033Z,100.00
2023-11-08T20:42:37.854Z,100.00
2023-11-08T20:45:05.528Z,100.00
2023-11-08T20:47:34.300Z,100.00
2023-11-08T20:50:03.502Z,100.00
2023-11-08T20:52:31.172Z,100.00
2023-11-08T20:54:59.554Z,100.00
2023-11-08T20:57:29.667Z,100.00
2023-11-08T20:59:57.192Z,100.00
2023-11-08T21:02:24.886Z,100.00
2023-11-08T21:04:52.262Z,100.00
2023-11-08T21:07:19.611Z,100.00
2023-11-08T21:09:47.009Z,100.00
2023-11-08T21:12:14.320Z,100.00
2023-11-08T21:14:41.651Z,100.00
2023-11-08T21:17:10.876Z,100.00
2023-11-08T21:19:38.236Z,100.00
2023-11-08T21:22:05.686Z,100.00
2023-11-08T21:24:33.036Z,100.00
2023-11-08T21:27:01.436Z,100.00
2023-11-08T21:29:29.276Z,100.00
2023-11-08T21:31:56.493Z,100.00
2023-11-08T21:34:24.087Z,100.00
2023-11-08T21:36:52.238Z,100.00
2023-11-08T21:39:20.690Z,100.00
2023-11-08T21:41:47.990Z,100.00
2023-11-08T21:44:15.524Z,100.00
2023-11-08T21:46:45.924Z,100.00
2023-11-08T21:49:13.421Z,100.00
2023-11-08T21:51:40.773Z,100.00
2023-11-08T21:54:09.850Z,100.00
2023-11-08T21:56:37.021Z,100.00
2023-11-08T21:59:04.237Z,100.00
2023-11-08T22:01:32.138Z,100.00
2023-11-08T22:03:59.696Z,100.00
2023-11-08T22:06:26.950Z,100.00
2023-11-08T22:08:56.334Z,100.00
2023-11-08T22:11:24.952Z,100.00
2023-11-08T22:13:52.178Z,100.00
2023-11-08T22:16:20.671Z,100.00
2023-11-08T22:18:47.995Z,100.00
2023-11-08T22:21:15.211Z,100.00
2023-11-08T22:23:42.538Z,100.00
2023-11-08T22:26:19.942Z,100.00
2023-11-08T22:28:47.677Z,100.00
2023-11-08T22:31:14.959Z,100.00
2023-11-08T22:33:42.216Z,100.00
2023-11-08T22:36:10.058Z,100.00
2023-11-08T22:38:37.747Z,100.00
2023-11-08T22:41:06.692Z,100.00
2023-11-08T22:43:33.987Z,100.00
2023-11-08T22:46:01.192Z,100.00
2023-11-08T22:48:31.473Z,100.00
2023-11-08T22:50:58.650Z,100.00
2023-11-08T22:53:25.768Z,100.00
2023-11-08T22:55:52.881Z,100.00
2023-11-08T22:58:20.143Z,100.00
2023-11-08T23:00:50.584Z,100.00
2023-11-08T23:03:18.431Z,100.00
2023-11-08T23:05:46.519Z,100.00
2023-11-08T23:08:15.109Z,100.00
2023-11-08T23:10:44.698Z,100.00
2023-11-08T23:13:12.025Z,100.00
2023-11-08T23:15:39.290Z,100.00
2023-11-08T23:18:06.675Z,100.00
2023-11-08T23:20:33.995Z,100.00
2023-11-08T23:23:01.348Z,100.00
2023-11-08T23:25:28.973Z,100.00
2023-11-08T23:27:56.366Z,100.00
2023-11-08T23:30:23.683Z,100.00
2023-11-08T23:32:51.014Z,100.00
2023-11-08T23:35:18.323Z,100.00
2023-11-08T23:37:51.681Z,100.00
2023-11-08T23:40:23.114Z,100.00
2023-11-08T23:42:51.081Z,100.00
2023-11-08T23:45:18.352Z,100.00
2023-11-08T23:47:45.578Z,100.00
2023-11-08T23:50:13.490Z,100.00
2023-11-08T23:52:40.803Z,100.00
2023-11-08T23:55:09.116Z,100.00
2023-11-08T23:57:36.472Z,100.00
